Time;durP1;ratioP1;P1;durP2;ratioP2;P2;SDS_P1;SDS_P2;PMS_P1;PMS_P2;Temp;Humidity;BMP_temperature;BMP_pressure;BME280_temperature;BME280_humidity;BME280_pressure;Samples;Min_cycle;Max_cycle;Signal;HPM_P1;HPM_P2
2022/02/26 00:02:25;;;;;;;;;;;2.70;77.00;;;0.99;74.24;97048.13;4970712;28;20332;-68
2022/02/26 00:04:51;;;;;;;;;;;2.70;77.20;;;1.00;74.38;97056.72;4955365;28;19949;-68
2022/02/26 00:07:17;;;;;;;;;;;2.60;77.50;;;1.01;74.77;97064.38;4981029;28;19918;-68
2022/02/26 00:09:42;;;;;;;;;;;2.60;77.60;;;1.00;75.49;97067.91;4984781;28;19928;-68
2022/02/26 00:12:08;;;;;;;;;;;2.60;77.90;;;0.99;75.05;97074.03;4970776;28;19933;-68
2022/02/26 00:14:34;;;;;;;;;;;2.60;78.00;;;0.96;74.55;97061.28;4969462;28;19929;-67
2022/02/26 00:16:59;;;;;;;;;;;2.60;77.90;;;0.98;73.88;97074.97;4957294;28;20372;-69
2022/02/26 00:19:25;;;;;;;;;;;2.60;78.10;;;0.98;74.42;97072.38;4987689;28;19930;-67
2022/02/26 00:21:51;;;;;;;;;;;2.60;77.80;;;0.98;74.86;97069.78;4988429;28;19922;-67
2022/02/26 00:24:17;;;;;;;;;;;2.70;77.70;;;0.95;73.96;97067.41;4953179;28;19922;-68
2022/02/26 00:26:42;;;;;;;;;;;2.60;77.60;;;0.96;74.41;97056.13;4946274;28;20041;-68
2022/02/26 00:29:08;;;;;;;;;;;2.60;77.70;;;0.98;75.44;97059.44;4970280;28;19926;-68
2022/02/26 00:31:34;;;;;;;;;;;2.60;77.70;;;1.00;74.64;97057.56;4987774;28;19975;-68
2022/02/26 00:33:59;;;;;;;;;;;2.60;77.40;;;1.01;74.37;97066.97;4970082;28;19932;-67
2022/02/26 00:36:25;;;;;;;;;;;2.70;77.30;;;1.01;73.89;97069.56;4969690;28;19926;-68
2022/02/26 00:38:50;;;;;;;;;;;2.70;77.30;;;1.01;73.89;97077.34;4954431;28;19926;-67
2022/02/26 00:41:16;;;;;;;;;;;2.70;77.00;;;1.03;73.65;97078.06;4954393;28;20361;-68
2022/02/26 00:43:42;;;;;;;;;;;2.70;76.70;;;1.00;75.02;97083.47;4983849;28;19918;-68
2022/02/26 00:46:08;;;;;;;;;;;2.70;76.80;;;1.02;74.01;97088.53;4969814;28;19926;-67
2022/02/26 00:51:18;;;;;;;;;;;2.70;77.20;;;1.01;74.27;97095.47;4973206;28;20349;-67
2022/02/26 00:53:44;;;;;;;;;;;2.70;77.10;;;1.00;74.32;97095.59;4938700;28;19918;-68
2022/02/26 00:56:09;;;;;;;;;;;2.70;77.30;;;1.02;74.43;97102.31;4953908;28;19949;-67
2022/02/26 00:58:35;;;;;;;;;;;2.70;77.40;;;1.03;74.63;97116.09;4969841;28;19926;-68
2022/02/26 01:01:01;;;;;;;;;;;2.80;77.30;;;1.00;74.56;97109.38;4953622;28;20074;-67
2022/02/26 01:03:26;;;;;;;;;;;2.70;77.60;;;1.00;74.84;97114.53;4970348;28;20416;-67
2022/02/26 01:05:52;;;;;;;;;;;2.80;77.60;;;1.01;75.33;97121.38;4987475;28;19918;-67
2022/02/26 01:08:18;;;;;;;;;;;2.80;77.50;;;1.00;74.95;97119.72;4970016;28;19922;-68
2022/02/26 01:10:43;;;;;;;;;;;2.80;77.20;;;1.01;74.72;97121.38;4970335;28;19922;-67
2022/02/26 01:13:09;;;;;;;;;;;2.70;77.30;;;1.03;74.26;97129.88;4969471;28;20305;-68
2022/02/26 01:15:35;;;;;;;;;;;2.80;77.40;;;1.00;74.85;97124.91;4969815;28;19922;-68
2022/02/26 01:18:00;;;;;;;;;;;2.80;77.30;;;1.03;73.80;97126.47;4969698;28;19922;-67
2022/02/26 01:20:26;;;;;;;;;;;2.80;77.00;;;1.04;74.42;97128.94;4989065;28;19934;-68
2022/02/26 01:22:52;;;;;;;;;;;2.70;77.40;;;1.07;74.56;97133.91;4957751;28;19918;-68
2022/02/26 01:25:17;;;;;;;;;;;2.80;77.40;;;1.06;74.94;97124.47;4973571;28;19922;-68
2022/02/26 01:27:43;;;;;;;;;;;2.80;77.60;;;1.08;75.47;97132.16;4973499;28;19932;-68
2022/02/26 01:30:09;;;;;;;;;;;2.80;77.30;;;1.04;75.16;97130.72;4957762;28;19932;-68
2022/02/26 01:32:35;;;;;;;;;;;2.80;77.50;;;1.07;74.44;97126.13;4971527;28;20226;-68
2022/02/26 01:35:01;;;;;;;;;;;2.90;77.60;;;1.09;74.63;97134.63;4973663;28;19918;-68
2022/02/26 01:37:27;;;;;;;;;;;2.90;77.40;;;1.12;74.39;97134.41;4973672;28;19971;-68
2022/02/26 01:39:53;;;;;;;;;;;2.90;77.40;;;1.13;73.80;97135.25;4991299;28;19926;-68
2022/02/26 01:42:21;;;;;;;;;;;2.90;77.30;;;1.09;76.27;97129.44;4956668;28;19921;-70
2022/02/26 01:44:51;;;;;;;;;;;2.80;77.80;;;1.13;74.77;97141.28;4973986;28;20287;-68
2022/02/26 01:47:17;;;;;;;;;;;3.00;77.70;;;1.17;75.31;97142.72;4963341;28;19921;-68
2022/02/26 01:49:42;;;;;;;;;;;3.00;77.50;;;1.17;75.34;97132.38;4973471;28;20283;-68
2022/02/26 01:52:08;;;;;;;;;;;3.10;77.30;;;1.19;75.61;97135.69;4957237;28;19926;-68
2022/02/26 01:54:34;;;;;;;;;;;3.00;77.10;;;1.20;75.53;97142.50;4972889;28;19967;-68
2022/02/26 01:57:00;;;;;;;;;;;3.00;77.40;;;1.21;74.82;97144.16;4990986;28;19922;-68
2022/02/26 01:59:26;;;;;;;;;;;3.00;77.30;;;1.19;75.15;97129.66;4973291;28;20372;-68
2022/02/26 02:01:51;;;;;;;;;;;3.10;77.20;;;1.22;74.63;97135.47;4973245;28;19934;-68
2022/02/26 02:04:18;;;;;;;;;;;3.10;76.40;;;1.25;74.05;97136.19;4968810;28;19926;-68
2022/02/26 02:06:43;;;;;;;;;;;3.10;76.30;;;1.25;74.12;97141.38;4957012;28;19925;-68
2022/02/26 02:09:09;;;;;;;;;;;3.00;76.20;;;1.25;74.23;97138.78;4940744;28;19976;-68
2022/02/26 02:11:35;;;;;;;;;;;3.00;75.90;;;1.26;73.39;97143.03;4957277;28;19918;-68
2022/02/26 02:14:00;;;;;;;;;;;3.10;75.70;;;1.27;73.44;97136.91;4956767;28;19957;-68
2022/02/26 02:16:26;;;;;;;;;;;3.10;75.20;;;1.32;73.96;97146.00;4971697;28;20424;-68
2022/02/26 02:18:52;;;;;;;;;;;3.20;75.00;;;1.34;73.77;97145.91;4972438;28;19926;-68
2022/02/26 02:21:19;;;;;;;;;;;3.30;74.70;;;1.37;72.86;97143.13;4972279;28;19921;-68
2022/02/26 02:23:44;;;;;;;;;;;3.40;74.40;;;1.40;73.65;97145.50;4990053;28;19922;-68
2022/02/26 02:26:10;;;;;;;;;;;3.40;74.10;;;1.40;72.70;97153.28;4972394;28;19928;-68
2022/02/26 02:28:37;;;;;;;;;;;3.30;74.00;;;1.45;72.57;97151.19;4973275;23;19930;-70
2022/02/26 02:31:03;;;;;;;;;;;3.40;73.90;;;1.43;72.80;97142.69;4961436;28;20008;-68
2022/02/26 02:33:28;;;;;;;;;;;3.30;74.30;;;1.44;72.82;97158.13;4953679;28;19930;-69
2022/02/26 02:35:54;;;;;;;;;;;3.30;74.40;;;1.41;72.48;97154.94;4952876;28;19945;-69
2022/02/26 02:38:19;;;;;;;;;;;3.10;74.90;;;1.43;73.17;97161.66;4960084;28;19922;-69
2022/02/26 02:40:46;;;;;;;;;;;3.30;74.70;;;1.44;73.41;97171.09;4968301;28;20341;-68
2022/02/26 02:43:12;;;;;;;;;;;3.40;74.40;;;1.47;72.77;97167.47;4970355;28;19973;-69
2022/02/26 02:45:38;;;;;;;;;;;3.30;74.50;;;1.47;73.23;97170.06;4960366;28;20016;-69
2022/02/26 02:48:04;;;;;;;;;;;3.40;74.50;;;1.49;73.67;97160.41;4969218;28;20048;-69
2022/02/26 02:50:30;;;;;;;;;;;3.40;74.50;;;1.48;73.16;97172.53;4985497;28;19921;-69
2022/02/26 02:52:55;;;;;;;;;;;3.40;74.60;;;1.46;73.31;97169.22;4971466;28;19984;-69
2022/02/26 02:55:21;;;;;;;;;;;3.30;74.90;;;1.46;73.52;97168.41;4968496;28;19922;-69
2022/02/26 02:57:48;;;;;;;;;;;3.30;74.80;;;1.45;73.39;97172.75;4960582;28;19926;-69
2022/02/26 03:00:14;;;;;;;;;;;3.40;75.00;;;1.46;74.82;97174.41;4968391;28;19933;-69
2022/02/26 03:02:40;;;;;;;;;;;3.40;74.80;;;1.43;74.23;97179.81;4968199;28;19949;-69
2022/02/26 03:05:06;;;;;;;;;;;3.30;75.00;;;1.43;73.79;97184.16;4985158;28;19977;-68
2022/02/26 03:07:32;;;;;;;;;;;3.30;75.10;;;1.42;73.22;97182.50;4968228;28;20090;-69
2022/02/26 03:09:58;;;;;;;;;;;3.30;75.00;;;1.42;74.15;97192.88;4983782;28;19932;-69
2022/02/26 03:12:24;;;;;;;;;;;3.30;75.20;;;1.40;74.15;97184.38;4968971;28;19926;-68
2022/02/26 03:14:49;;;;;;;;;;;3.30;75.30;;;1.42;74.40;97187.69;4968241;28;20301;-68
2022/02/26 03:17:15;;;;;;;;;;;3.40;75.40;;;1.44;74.70;97191.84;4937400;28;20297;-69
2022/02/26 03:19:41;;;;;;;;;;;3.40;75.20;;;1.46;73.95;97183.94;4981064;28;19926;-69
2022/02/26 03:22:06;;;;;;;;;;;3.40;75.10;;;1.48;73.87;97202.81;4965026;28;20319;-69
2022/02/26 03:24:32;;;;;;;;;;;3.50;74.80;;;1.49;73.71;97191.50;4983349;28;19922;-69
2022/02/26 03:26:58;;;;;;;;;;;3.50;74.80;;;1.51;73.41;97198.25;4935395;28;19945;-69
2022/02/26 03:29:24;;;;;;;;;;;3.60;74.70;;;1.53;73.81;97200.72;4984941;28;19922;-69
2022/02/26 03:31:50;;;;;;;;;;;3.60;74.70;;;1.53;73.92;97205.91;4952052;28;19933;-69
2022/02/26 03:34:16;;;;;;;;;;;3.60;74.30;;;1.51;73.59;97207.78;4972138;28;20006;-70
2022/02/26 03:36:41;;;;;;;;;;;3.50;74.70;;;1.50;74.63;97200.94;4964184;28;20187;-69
2022/02/26 03:39:07;;;;;;;;;;;3.40;74.80;;;1.49;74.25;97204.47;4984570;28;19937;-69
2022/02/26 03:41:33;;;;;;;;;;;3.40;75.40;;;1.45;75.48;97209.03;4951266;28;20474;-69
2022/02/26 03:43:58;;;;;;;;;;;3.20;76.10;;;1.41;75.08;97202.41;4977769;28;19997;-69
2022/02/26 03:46:24;;;;;;;;;;;3.10;76.70;;;1.39;75.71;97203.47;4966909;28;19922;-69
2022/02/26 03:48:52;;;;;;;;;;;3.20;76.90;;;1.38;75.54;97204.41;4951552;28;19922;-69
2022/02/26 03:51:18;;;;;;;;;;;3.20;76.70;;;1.36;75.05;97208.84;4968089;28;19929;-69
2022/02/26 03:53:44;;;;;;;;;;;3.20;76.50;;;1.35;75.45;97222.72;4967628;28;19922;-69
2022/02/26 03:56:09;;;;;;;;;;;3.30;76.40;;;1.35;75.50;97220.13;4968467;28;19922;-69
2022/02/26 03:58:35;;;;;;;;;;;3.20;76.40;;;1.35;74.98;97230.50;4967639;28;20366;-70
2022/02/26 04:01:01;;;;;;;;;;;3.20;76.70;;;1.32;75.24;97233.31;4983468;28;19926;-69
2022/02/26 04:03:26;;;;;;;;;;;3.20;76.90;;;1.31;75.40;97231.66;4983913;28;19926;-68
2022/02/26 04:05:52;;;;;;;;;;;3.20;77.10;;;1.30;75.48;97235.19;4983161;28;19977;-68
2022/02/26 04:08:18;;;;;;;;;;;3.20;77.20;;;1.31;75.76;97240.25;4967850;28;19929;-69
2022/02/26 04:10:43;;;;;;;;;;;3.20;77.20;;;1.30;76.24;97241.19;4968270;28;19922;-69
2022/02/26 04:13:09;;;;;;;;;;;3.30;77.30;;;1.31;75.89;97242.03;4967656;28;19930;-69
2022/02/26 04:15:35;;;;;;;;;;;3.30;77.40;;;1.32;76.73;97248.84;4966572;28;20263;-68
2022/02/26 04:18:00;;;;;;;;;;;3.30;77.40;;;1.32;75.97;97248.84;4966613;28;19963;-69
2022/02/26 04:20:26;;;;;;;;;;;3.30;77.50;;;1.32;76.16;97256.63;4970041;28;19980;-69
2022/02/26 04:22:52;;;;;;;;;;;3.40;77.20;;;1.33;76.84;97255.69;4983311;28;19929;-70
2022/02/26 04:25:17;;;;;;;;;;;3.40;77.20;;;1.35;76.41;97259.03;4951417;28;19928;-69
2022/02/26 04:27:43;;;;;;;;;;;3.30;77.30;;;1.35;76.61;97254.66;4965851;28;20377;-73
2022/02/26 04:30:09;;;;;;;;;;;3.40;76.90;;;1.36;77.05;97258.94;4967347;28;20414;-72
2022/02/26 04:32:36;;;;;;;;;;;3.40;77.00;;;1.35;76.82;97246.88;4933123;28;20400;-72
2022/02/26 04:35:03;;;;;;;;;;;3.40;77.50;;;1.37;76.18;97252.81;4964455;28;19934;-69
2022/02/26 04:37:28;;;;;;;;;;;3.40;77.40;;;1.38;76.58;97249.31;4966644;28;20358;-76
2022/02/26 04:39:54;;;;;;;;;;;3.30;77.60;;;1.37;76.41;97254.59;4967559;28;19937;-74
2022/02/26 04:42:20;;;;;;;;;;;3.30;78.40;;;1.37;76.68;97259.78;4950849;28;20333;-71
2022/02/26 04:44:45;;;;;;;;;;;3.30;77.70;;;1.36;75.91;97250.31;4974714;28;19927;-70
2022/02/26 04:47:12;;;;;;;;;;;3.30;76.90;;;1.36;76.19;97255.50;4980120;28;20084;-69
2022/02/26 04:49:38;;;;;;;;;;;3.40;76.60;;;1.37;76.13;97258.00;4967029;28;20001;-69
2022/02/26 04:52:04;;;;;;;;;;;3.40;76.60;;;1.38;75.79;97264.84;4950734;28;19922;-70
2022/02/26 04:54:30;;;;;;;;;;;3.30;76.50;;;1.37;75.29;97264.97;4954614;28;20080;-69
2022/02/26 04:56:55;;;;;;;;;;;3.20;76.80;;;1.36;75.48;97268.44;4971790;28;19922;-69
2022/02/26 04:59:21;;;;;;;;;;;3.30;76.70;;;1.38;77.48;97275.22;4972803;28;19922;-69
2022/02/26 05:01:47;;;;;;;;;;;3.40;78.00;;;1.41;76.42;97279.38;4969478;28;19926;-69
2022/02/26 05:04:12;;;;;;;;;;;3.50;77.40;;;1.43;76.59;97285.28;4962262;28;20076;-70
2022/02/26 05:06:38;;;;;;;;;;;3.40;76.70;;;1.42;75.30;97283.63;4970947;28;19929;-69
2022/02/26 05:09:04;;;;;;;;;;;3.30;76.20;;;1.41;75.94;97282.78;4962601;28;19953;-69
2022/02/26 05:11:29;;;;;;;;;;;3.30;76.30;;;1.42;75.93;97287.03;4964772;28;20350;-70
2022/02/26 05:13:55;;;;;;;;;;;3.50;76.30;;;1.43;75.72;97285.28;4938525;28;19918;-70
2022/02/26 05:16:21;;;;;;;;;;;3.40;75.90;;;1.44;76.09;97292.94;4969339;28;19987;-69
2022/02/26 05:18:46;;;;;;;;;;;3.50;75.80;;;1.44;74.85;97289.53;4970418;28;20420;-69
2022/02/26 05:21:12;;;;;;;;;;;3.40;75.80;;;1.45;76.67;97291.19;4971325;28;19968;-70
2022/02/26 05:23:41;;;;;;;;;;;3.50;75.60;;;1.45;75.45;97293.78;4971046;28;19928;-69
2022/02/26 05:26:11;;;;;;;;;;;3.50;75.60;;;1.45;75.64;97296.38;4969706;28;20298;-69
2022/02/26 05:28:37;;;;;;;;;;;3.50;75.90;;;1.44;75.63;97292.13;4986057;28;19980;-70
2022/02/26 05:31:03;;;;;;;;;;;3.50;75.80;;;1.42;75.96;97296.59;4953447;28;19926;-68
2022/02/26 05:33:28;;;;;;;;;;;3.40;76.20;;;1.46;75.85;97296.25;4937493;28;20012;-70
2022/02/26 05:35:54;;;;;;;;;;;3.50;76.20;;;1.46;75.55;97301.44;4969722;28;19954;-70
2022/02/26 05:38:19;;;;;;;;;;;3.50;76.10;;;1.48;75.04;97302.16;4970007;28;20009;-71
2022/02/26 05:40:45;;;;;;;;;;;3.50;76.00;;;1.46;75.37;97304.03;4985463;28;20271;-71
2022/02/26 05:43:11;;;;;;;;;;;3.50;75.90;;;1.47;75.72;97310.06;4920692;29;19919;-70
2022/02/26 05:45:36;;;;;;;;;;;3.50;75.80;;;1.46;75.65;97308.41;4937782;28;19956;-69
2022/02/26 05:48:02;;;;;;;;;;;3.50;75.90;;;1.46;75.55;97313.59;4953810;28;20377;-72
2022/02/26 05:50:28;;;;;;;;;;;3.50;75.80;;;1.45;74.49;97307.56;4969617;28;19982;-72
2022/02/26 05:52:53;;;;;;;;;;;3.40;75.70;;;1.44;74.72;97315.44;4954242;28;19922;-69
2022/02/26 05:55:19;;;;;;;;;;;3.30;75.90;;;1.40;75.36;97314.84;4971299;28;20394;-69
2022/02/26 05:57:45;;;;;;;;;;;3.30;76.10;;;1.39;75.20;97320.13;4969862;28;19918;-69
2022/02/26 06:00:11;;;;;;;;;;;3.20;76.20;;;1.37;75.03;97322.81;4970092;28;19923;-70
2022/02/26 06:02:37;;;;;;;;;;;3.20;76.30;;;1.37;75.43;97324.59;4968544;28;20353;-70
2022/02/26 06:05:02;;;;;;;;;;;3.30;76.10;;;1.36;75.75;97323.75;4968820;28;19922;-69
2022/02/26 06:07:29;;;;;;;;;;;3.20;76.10;;;1.36;76.04;97330.66;4970220;28;20228;-69
2022/02/26 06:09:55;;;;;;;;;;;3.20;76.10;;;1.38;75.72;97337.44;4969809;28;20313;-69
2022/02/26 06:12:20;;;;;;;;;;;3.30;76.80;;;1.39;76.20;97339.09;4953248;28;19973;-70
2022/02/26 06:14:46;;;;;;;;;;;3.40;76.40;;;1.40;75.21;97345.13;4969544;28;20182;-69
2022/02/26 06:17:12;;;;;;;;;;;3.40;76.00;;;1.38;75.38;97346.97;4953757;28;19930;-69
2022/02/26 06:19:37;;;;;;;;;;;3.30;76.10;;;1.32;75.90;97345.59;4954978;28;19926;-70
2022/02/26 06:22:03;;;;;;;;;;;3.10;76.90;;;1.28;76.16;97354.50;4982628;28;19922;-70
2022/02/26 06:24:29;;;;;;;;;;;3.10;77.00;;;1.31;76.60;97358.66;4952124;28;20338;-70
2022/02/26 06:26:55;;;;;;;;;;;3.30;76.60;;;1.30;75.83;97359.59;4969190;28;19955;-69
2022/02/26 06:29:20;;;;;;;;;;;3.10;76.80;;;1.29;75.83;97363.13;4958461;28;19917;-70
2022/02/26 06:31:46;;;;;;;;;;;3.20;76.60;;;1.30;75.90;97370.78;4969038;28;20013;-70
2022/02/26 06:34:11;;;;;;;;;;;3.20;76.30;;;1.30;76.62;97370.78;4969556;28;19930;-69
2022/02/26 06:36:38;;;;;;;;;;;3.20;76.90;;;1.29;76.31;97366.53;4970357;28;19918;-70
2022/02/26 06:39:04;;;;;;;;;;;3.10;76.90;;;1.31;77.15;97375.03;4986229;28;20417;-70
2022/02/26 06:41:29;;;;;;;;;;;3.20;76.60;;;1.32;76.35;97370.69;4953748;28;19923;-70
2022/02/26 06:43:56;;;;;;;;;;;3.10;77.00;;;1.32;76.61;97378.47;4953196;28;19918;-69
2022/02/26 06:46:22;;;;;;;;;;;3.30;77.50;;;1.32;76.25;97370.69;4936286;28;20305;-70
2022/02/26 06:48:47;;;;;;;;;;;3.10;77.00;;;1.32;76.04;97384.47;4938282;28;19918;-69
2022/02/26 06:51:13;;;;;;;;;;;3.10;77.00;;;1.33;76.13;97390.50;4950317;29;19945;-70
2022/02/26 06:53:39;;;;;;;;;;;3.30;76.70;;;1.35;76.24;97383.44;4933986;29;19918;-69
2022/02/26 06:56:05;;;;;;;;;;;3.30;76.50;;;1.36;76.03;97390.28;4949360;29;20302;-70
2022/02/26 06:58:31;;;;;;;;;;;3.40;76.10;;;1.38;75.33;97398.81;4949739;28;19919;-69
2022/02/26 07:00:56;;;;;;;;;;;3.40;75.90;;;1.40;75.92;97396.97;4969857;28;19949;-70
2022/02/26 07:03:22;;;;;;;;;;;3.40;75.70;;;1.39;76.12;97405.69;4957335;28;20278;-70
2022/02/26 07:05:48;;;;;;;;;;;3.30;76.20;;;1.40;75.81;97408.16;4969817;28;19918;-70
2022/02/26 07:08:13;;;;;;;;;;;3.40;76.00;;;1.43;76.30;97405.38;4952778;28;19918;-69
2022/02/26 07:10:39;;;;;;;;;;;3.50;76.10;;;1.48;76.27;97413.66;4968793;28;20382;-69
2022/02/26 07:13:05;;;;;;;;;;;3.60;75.80;;;1.53;75.05;97418.53;4953022;28;19918;-70
2022/02/26 07:15:31;;;;;;;;;;;3.60;75.30;;;1.57;75.66;97414.81;4952551;28;20405;-70
2022/02/26 07:17:57;;;;;;;;;;;3.70;75.30;;;1.60;75.81;97408.63;4968760;28;19932;-70
2022/02/26 07:20:23;;;;;;;;;;;3.70;75.60;;;1.64;75.98;97417.84;4981155;28;19922;-69
2022/02/26 07:22:48;;;;;;;;;;;3.80;75.20;;;1.66;75.67;97414.22;4984416;28;19937;-70
2022/02/26 07:25:14;;;;;;;;;;;3.90;74.90;;;1.73;75.41;97427.59;4958157;28;19945;-70
2022/02/26 07:27:40;;;;;;;;;;;4.00;74.90;;;1.75;75.99;97423.97;4967589;28;19922;-70
2022/02/26 07:30:07;;;;;;;;;;;4.00;75.00;;;1.79;75.78;97433.22;4967181;28;19926;-72
2022/02/26 07:32:33;;;;;;;;;;;4.00;75.00;;;1.81;75.65;97426.19;4982989;28;19918;-72
2022/02/26 07:35:00;;;;;;;;;;;4.00;74.60;;;1.85;75.30;97429.41;4966190;28;19926;-71
2022/02/26 07:37:25;;;;;;;;;;;4.00;75.00;;;1.89;75.63;97435.22;4968075;28;20326;-72
2022/02/26 07:39:51;;;;;;;;;;;4.00;74.80;;;1.95;75.25;97439.97;4968154;28;19977;-72
2022/02/26 07:42:16;;;;;;;;;;;4.20;74.60;;;1.97;74.88;97441.53;4968931;28;20333;-72
2022/02/26 07:44:42;;;;;;;;;;;4.10;74.30;;;1.98;74.56;97439.78;4947201;28;19993;-73
2022/02/26 07:47:08;;;;;;;;;;;4.10;74.30;;;2.00;74.79;97443.09;4967083;28;19925;-72
2022/02/26 07:49:33;;;;;;;;;;;4.10;74.40;;;2.05;74.17;97443.63;4967985;28;19929;-72
2022/02/26 07:51:59;;;;;;;;;;;4.20;73.60;;;2.09;73.98;97447.69;4983614;28;19936;-71
2022/02/26 07:54:25;;;;;;;;;;;4.30;73.50;;;2.12;74.09;97456.09;4966875;28;19922;-71
2022/02/26 07:56:51;;;;;;;;;;;4.30;73.20;;;2.15;73.87;97455.88;4951519;28;19918;-71
2022/02/26 07:59:16;;;;;;;;;;;4.30;73.30;;;2.23;74.09;97444.13;4983484;28;19941;-72
2022/02/26 08:01:42;;;;;;;;;;;4.50;73.10;;;2.28;75.03;97457.66;4968129;28;19922;-71
2022/02/26 08:04:07;;;;;;;;;;;4.60;73.20;;;2.37;74.33;97457.03;4951621;28;19926;-72
2022/02/26 08:06:33;;;;;;;;;;;4.70;72.20;;;2.45;73.35;97455.56;4966955;28;20002;-71
2022/02/26 08:08:59;;;;;;;;;;;4.90;71.10;;;2.56;73.05;97456.59;4947801;28;19934;-72
2022/02/26 08:11:28;;;;;;;;;;;5.10;70.60;;;2.65;73.02;97453.34;4951522;28;19977;-72
2022/02/26 08:13:58;;;;;;;;;;;5.00;70.60;;;2.71;72.94;97453.75;4951638;28;19977;-73
2022/02/26 08:16:24;;;;;;;;;;;5.10;70.70;;;2.84;73.36;97461.53;4934852;28;19922;-71
2022/02/26 08:18:49;;;;;;;;;;;5.30;70.60;;;2.95;72.61;97460.78;4983054;28;20294;-74
2022/02/26 08:21:15;;;;;;;;;;;5.50;69.70;;;3.01;70.69;97458.56;4969918;28;20348;-69
2022/02/26 08:23:41;;;;;;;;;;;5.40;68.00;;;3.11;70.62;97463.09;4966719;28;19929;-71
2022/02/26 08:26:06;;;;;;;;;;;5.60;67.70;;;3.21;71.06;97461.53;4967179;28;19953;-72
2022/02/26 08:28:32;;;;;;;;;;;5.80;67.70;;;3.31;70.00;97459.91;4982494;28;19944;-72
2022/02/26 08:30:58;;;;;;;;;;;5.80;66.80;;;3.40;69.83;97468.84;4950249;28;19922;-67
2022/02/26 08:33:24;;;;;;;;;;;5.90;66.50;;;3.47;69.16;97464.84;4950860;28;19923;-66
2022/02/26 08:39:12;;;;;;;;;;;5.80;66.00;;;3.57;68.75;97466.66;4953190;28;19993;-70
2022/02/26 08:41:37;;;;;;;;;;;6.10;65.60;;;3.66;68.55;97467.78;4966047;28;19922;-74
2022/02/26 08:44:03;;;;;;;;;;;6.20;65.00;;;3.78;68.13;97469.44;4966178;28;19922;-73
2022/02/26 08:46:29;;;;;;;;;;;6.40;63.90;;;3.90;68.10;97472.94;4980040;28;20349;-74
2022/02/26 08:48:56;;;;;;;;;;;6.60;63.60;;;4.03;66.49;97473.66;4966735;28;19929;-73
2022/02/26 08:51:21;;;;;;;;;;;6.70;62.00;;;4.12;66.08;97466.97;4951837;28;19929;-73
2022/02/26 08:53:47;;;;;;;;;;;6.70;60.90;;;4.23;66.05;97464.38;4968014;28;19922;-74
2022/02/26 08:56:13;;;;;;;;;;;7.00;60.30;;;4.38;66.17;97464.97;4966796;28;20390;-74
2022/02/26 08:58:38;;;;;;;;;;;7.30;60.10;;;4.52;65.23;97460.34;4950554;28;19922;-74
2022/02/26 09:01:04;;;;;;;;;;;7.30;59.30;;;4.64;64.47;97469.03;4951283;28;19933;-73
2022/02/26 09:03:29;;;;;;;;;;;7.50;59.20;;;4.76;64.04;97457.66;4968249;28;20308;-73
2022/02/26 09:05:55;;;;;;;;;;;7.60;58.30;;;4.87;63.99;97469.84;4967539;28;19919;-74
2022/02/26 09:08:21;;;;;;;;;;;7.70;57.60;;;4.99;64.29;97468.06;4950757;28;19922;-71
2022/02/26 09:10:46;;;;;;;;;;;8.10;57.00;;;5.12;64.00;97469.56;4968160;28;19918;-73
2022/02/26 09:13:12;;;;;;;;;;;8.10;56.20;;;5.27;63.12;97483.19;4951522;28;19935;-74
2022/02/26 09:15:38;;;;;;;;;;;8.40;55.70;;;5.42;62.96;97471.50;4950266;28;19949;-72
2022/02/26 09:18:03;;;;;;;;;;;8.60;54.00;;;5.57;61.14;97477.28;4968479;28;20390;-74
2022/02/26 09:20:29;;;;;;;;;;;8.70;53.30;;;5.71;61.63;97476.19;4968487;28;19922;-70
2022/02/26 09:22:55;;;;;;;;;;;9.00;53.10;;;5.85;60.76;97468.03;4935058;28;19921;-72
2022/02/26 09:25:20;;;;;;;;;;;9.20;51.60;;;6.03;61.15;97477.00;4949037;28;19933;-68
2022/02/26 09:27:47;;;;;;;;;;;10.20;50.70;;;6.48;59.89;97473.28;4950318;28;19922;-68
2022/02/26 09:30:13;;;;;;;;;;;11.50;45.50;;;6.95;59.31;97467.44;4983810;28;19925;-69
2022/02/26 09:32:39;;;;;;;;;;;12.60;43.80;;;7.46;57.99;97466.44;4982459;28;20393;-69
2022/02/26 09:35:06;;;;;;;;;;;12.80;42.30;;;7.82;57.40;97462.34;4952210;28;19929;-68
2022/02/26 09:37:31;;;;;;;;;;;13.20;41.40;;;8.29;55.31;97467.66;4971774;28;19962;-68
2022/02/26 09:39:59;;;;;;;;;;;14.40;37.70;;;8.76;52.33;97458.03;4968701;28;19933;-68
2022/02/26 09:42:28;;;;;;;;;;;15.10;35.00;;;9.19;52.65;97454.78;4970598;28;19949;-70
2022/02/26 09:44:53;;;;;;;;;;;15.80;34.00;;;9.65;53.34;97452.97;4978789;28;20408;-68
2022/02/26 09:47:20;;;;;;;;;;;17.10;33.70;;;10.26;51.96;97454.81;4969842;28;19922;-69
2022/02/26 09:49:45;;;;;;;;;;;18.50;31.50;;;10.87;50.87;97453.88;4971888;28;19922;-69
2022/02/26 09:52:11;;;;;;;;;;;19.50;29.60;;;11.41;48.70;97449.13;4954749;28;19933;-67
2022/02/26 09:54:37;;;;;;;;;;;19.60;27.20;;;11.78;46.66;97450.53;4952655;28;19933;-66
2022/02/26 09:57:02;;;;;;;;;;;20.40;26.40;;;12.33;50.05;97450.72;4970118;28;20382;-66
2022/02/26 09:59:28;;;;;;;;;;;22.10;24.90;;;12.86;47.98;97447.44;4970419;28;19930;-67
2022/02/26 10:02:01;;;;;;;;;;;23.00;24.60;;;13.60;46.38;97444.50;4986642;28;19980;-67
2022/02/26 10:04:27;;;;;;;;;;;24.20;23.30;;;14.30;47.30;97445.13;4969072;28;20090;-68
2022/02/26 10:07:13;;;;;;;;;;;23.50;23.70;;;14.53;44.92;97453.06;4971339;28;20024;-67
2022/02/26 10:09:42;;;;;;;;;;;21.20;25.00;;;14.30;46.24;97452.25;4970756;28;20004;-67
2022/02/26 10:12:28;;;;;;;;;;;19.20;28.00;;;13.92;44.41;97460.16;4972002;28;19976;-67
2022/02/26 10:14:58;;;;;;;;;;;17.70;29.00;;;13.34;44.81;97464.13;4969578;28;19977;-67
2022/02/26 10:17:25;;;;;;;;;;;16.10;30.50;;;12.77;43.97;97463.50;4954023;28;19921;-67
2022/02/26 10:19:58;;;;;;;;;;;15.00;32.10;;;12.22;44.26;97464.22;4970368;28;19957;-67
2022/02/26 10:22:28;;;;;;;;;;;14.70;32.40;;;11.78;45.92;97484.78;4964594;28;19919;-67
2022/02/26 10:24:54;;;;;;;;;;;14.30;33.20;;;11.33;45.39;97476.28;4969820;28;19922;-67
2022/02/26 10:27:19;;;;;;;;;;;13.70;34.30;;;10.93;47.34;97469.03;4971112;28;20351;-67
2022/02/26 10:29:45;;;;;;;;;;;13.50;35.40;;;10.61;48.08;97472.31;4953934;28;19929;-67
2022/02/26 10:32:11;;;;;;;;;;;13.10;36.20;;;10.26;46.91;97483.75;4971399;28;19922;-68
2022/02/26 10:34:38;;;;;;;;;;;12.60;36.60;;;10.00;47.54;97477.59;4969020;28;20389;-67
2022/02/26 10:37:14;;;;;;;;;;;12.50;36.40;;;9.76;46.99;97476.41;4950836;28;19919;-67
2022/02/26 10:39:47;;;;;;;;;;;12.20;37.40;;;9.55;48.16;97478.50;4966617;28;19930;-67
2022/02/26 10:42:18;;;;;;;;;;;12.10;36.40;;;9.36;47.83;97476.81;4986193;28;19929;-67
2022/02/26 10:44:43;;;;;;;;;;;12.10;37.00;;;9.14;47.86;97475.41;4970778;28;19962;-67
2022/02/26 10:47:11;;;;;;;;;;;11.60;37.00;;;8.96;47.51;97477.16;4969374;28;19962;-67
2022/02/26 10:49:45;;;;;;;;;;;11.50;36.90;;;8.79;47.39;97473.47;4969542;28;19926;-67
2022/02/26 10:52:11;;;;;;;;;;;11.40;38.00;;;8.69;48.73;97469.25;4985747;28;19918;-67
2022/02/26 10:54:38;;;;;;;;;;;11.40;38.20;;;8.83;48.02;97474.88;4952501;28;19926;-67
2022/02/26 10:57:04;;;;;;;;;;;14.40;34.70;;;9.59;47.63;97463.25;4953602;28;20339;-68
2022/02/26 10:59:32;;;;;;;;;;;16.80;29.40;;;9.93;46.87;97460.75;4969151;28;19930;-67
2022/02/26 11:01:59;;;;;;;;;;;15.30;30.50;;;10.06;46.82;97455.94;4971222;28;19929;-67
2022/02/26 11:04:25;;;;;;;;;;;14.80;31.90;;;10.25;44.71;97463.69;4950665;28;19922;-66
2022/02/26 11:06:50;;;;;;;;;;;15.50;29.80;;;10.90;42.54;97456.19;4968626;28;19968;-66
2022/02/26 11:09:16;;;;;;;;;;;19.50;24.70;;;11.98;42.46;97451.03;4952831;28;19922;-67
2022/02/26 11:11:43;;;;;;;;;;;22.70;21.70;;;12.84;42.48;97443.34;4969171;28;20378;-66
2022/02/26 11:14:08;;;;;;;;;;;21.90;21.80;;;13.41;40.03;97438.66;4959558;28;19929;-66
2022/02/26 11:16:34;;;;;;;;;;;22.00;22.00;;;13.82;39.71;97438.41;4966010;28;20461;-67
2022/02/26 11:19:00;;;;;;;;;;;21.30;21.20;;;14.21;38.82;97429.50;4968928;28;19922;-67
2022/02/26 11:21:25;;;;;;;;;;;22.10;20.40;;;14.32;37.75;97434.38;4985351;28;20279;-67
2022/02/26 11:23:51;;;;;;;;;;;19.70;21.70;;;14.24;35.85;97437.06;4985066;28;19922;-67
2022/02/26 11:26:19;;;;;;;;;;;19.60;22.40;;;14.25;35.81;97422.81;4969841;28;20283;-67
2022/02/26 11:28:49;;;;;;;;;;;19.60;20.80;;;14.27;37.28;97424.31;4951828;28;19928;-70
2022/02/26 11:31:17;;;;;;;;;;;19.40;21.30;;;14.44;36.54;97427.66;4953095;28;19923;-68
2022/02/26 11:33:44;;;;;;;;;;;21.20;19.30;;;15.10;36.69;97415.31;4963386;28;19930;-67